createdAt,value
2019-02-21T00:00:55.938Z,3.55
2019-02-21T00:03:27.936Z,3.46
2019-02-21T00:05:59.932Z,3.47
2019-02-21T00:08:31.924Z,3.41
2019-02-21T00:11:03.922Z,3.42
2019-02-21T00:13:35.964Z,3.34
2019-02-21T00:16:07.938Z,3.35
2019-02-21T00:18:39.937Z,3.40
2019-02-21T00:21:11.935Z,3.32
2019-02-21T00:23:43.944Z,3.30
2019-02-21T00:26:15.931Z,3.23
2019-02-21T00:28:47.935Z,3.24
2019-02-21T00:31:19.965Z,3.25
2019-02-21T00:33:51.936Z,3.21
2019-02-21T00:36:23.928Z,3.25
2019-02-21T00:38:55.884Z,3.23
2019-02-21T00:41:27.906Z,3.20
2019-02-21T00:43:59.887Z,3.18
2019-02-21T00:46:31.908Z,3.08
2019-02-21T00:49:03.890Z,3.02
2019-02-21T00:51:35.890Z,2.95
2019-02-21T00:54:07.897Z,2.93
2019-02-21T00:56:39.899Z,2.88
2019-02-21T00:59:11.891Z,2.89
2019-02-21T01:01:43.872Z,2.82
2019-02-21T01:04:15.841Z,2.84
2019-02-21T01:06:47.847Z,2.85
2019-02-21T01:09:19.808Z,2.82
2019-02-21T01:11:51.917Z,2.82
2019-02-21T01:14:23.888Z,2.76
2019-02-21T01:16:55.917Z,2.73
2019-02-21T01:19:27.853Z,2.74
2019-02-21T01:21:59.869Z,2.71
2019-02-21T01:24:31.815Z,2.70
2019-02-21T01:27:03.847Z,2.69
2019-02-21T01:29:35.831Z,2.65
2019-02-21T01:32:07.802Z,2.60
2019-02-21T01:34:39.759Z,2.60
2019-02-21T01:37:11.758Z,2.64
2019-02-21T01:39:43.720Z,2.58
2019-02-21T01:42:15.726Z,2.55
2019-02-21T01:44:47.864Z,2.40
2019-02-21T01:47:19.898Z,2.35
2019-02-21T01:49:51.853Z,2.34
2019-02-21T01:52:23.846Z,2.30
2019-02-21T01:54:55.815Z,2.25
2019-02-21T01:57:28.629Z,2.20
2019-02-21T02:00:00.789Z,2.24
2019-02-21T02:02:32.758Z,2.28
2019-02-21T02:05:05.421Z,2.21
2019-02-21T02:07:37.891Z,2.15
2019-02-21T02:10:09.979Z,2.13
2019-02-21T02:12:41.979Z,2.11
2019-02-21T02:15:14.001Z,2.18
2019-02-21T02:17:46.020Z,2.11
2019-02-21T02:20:18.048Z,2.06
2019-02-21T02:22:50.046Z,2.00
2019-02-21T02:25:22.038Z,1.97
2019-02-21T02:27:54.011Z,1.90
2019-02-21T02:30:25.999Z,1.82
2019-02-21T02:32:57.997Z,1.77
2019-02-21T02:35:29.986Z,1.76
2019-02-21T02:38:01.970Z,1.86
2019-02-21T02:40:33.961Z,1.85
2019-02-21T02:43:05.911Z,1.83
2019-02-21T02:45:37.905Z,1.84
2019-02-21T02:48:09.868Z,1.84
2019-02-21T02:50:41.966Z,1.88
2019-02-21T02:53:13.923Z,1.90
2019-02-21T02:55:45.902Z,1.95
2019-02-21T02:58:17.870Z,2.02
2019-02-21T03:04:30.043Z,1.92
2019-02-21T03:07:02.019Z,1.97
2019-02-21T03:09:34.006Z,1.98
2019-02-21T03:12:05.974Z,2.00
2019-02-21T03:14:37.934Z,1.93
2019-02-21T03:17:09.901Z,1.91
2019-02-21T03:19:41.839Z,1.87
2019-02-21T03:22:13.822Z,1.93
2019-02-21T03:24:45.753Z,1.98
2019-02-21T03:27:17.778Z,1.97
2019-02-21T03:29:49.759Z,2.04
2019-02-21T03:32:21.743Z,2.03
2019-02-21T03:34:53.686Z,2.08
2019-02-21T03:37:25.670Z,2.05
2019-02-21T03:39:57.644Z,2.07
2019-02-21T03:42:29.627Z,2.07
2019-02-21T03:45:01.571Z,2.03
2019-02-21T03:47:33.557Z,2.01
2019-02-21T03:50:05.621Z,1.98
2019-02-21T03:52:37.594Z,1.95
2019-02-21T03:55:09.527Z,1.99
2019-02-21T03:57:41.511Z,1.99
2019-02-21T04:03:32.767Z,2.14
2019-02-21T04:06:04.716Z,2.18
2019-02-21T04:08:36.693Z,2.23
2019-02-21T04:11:08.649Z,2.33
2019-02-21T04:13:40.667Z,2.27
2019-02-21T04:16:12.642Z,2.29
2019-02-21T04:18:44.620Z,2.27
2019-02-21T04:21:16.592Z,2.27
2019-02-21T04:23:48.568Z,2.20
2019-02-21T04:26:20.507Z,2.08
2019-02-21T04:28:52.487Z,1.99
2019-02-21T04:31:24.442Z,1.98
2019-02-21T04:33:56.416Z,2.03
2019-02-21T04:36:28.388Z,2.07
2019-02-21T04:39:00.386Z,2.00
2019-02-21T04:41:32.344Z,2.00
2019-02-21T04:44:04.354Z,1.90
2019-02-21T04:46:36.294Z,1.91
2019-02-21T04:49:08.370Z,1.90
2019-02-21T04:51:40.333Z,1.91
2019-02-21T04:54:12.329Z,1.91
2019-02-21T04:56:44.289Z,1.92
2019-02-21T04:59:16.250Z,1.93
2019-02-21T05:01:48.206Z,1.93
2019-02-21T05:04:20.191Z,1.96
2019-02-21T05:06:52.280Z,2.08
2019-02-21T05:09:26.916Z,2.01
2019-02-21T05:11:58.170Z,2.04
2019-02-21T05:14:30.178Z,2.00
2019-02-21T05:17:02.175Z,1.96
2019-02-21T05:19:34.193Z,1.95
2019-02-21T05:22:06.185Z,1.94
2019-02-21T05:24:38.221Z,1.98
2019-02-21T05:27:22.765Z,2.01
2019-02-21T05:29:54.926Z,2.07
2019-02-21T05:32:55.319Z,2.18
2019-02-21T05:35:36.956Z,2.24
2019-02-21T05:38:28.492Z,2.20
2019-02-21T05:41:18.988Z,2.21
2019-02-21T05:44:10.552Z,2.29
2019-02-21T05:46:55.837Z,2.29
2019-02-21T05:49:38.086Z,2.30
2019-02-21T05:52:20.792Z,2.34
2019-02-21T05:54:59.571Z,2.41
2019-02-21T05:57:40.169Z,2.63
2019-02-21T06:00:29.323Z,2.62
2019-02-21T06:03:19.457Z,2.59
2019-02-21T06:06:09.958Z,2.63
2019-02-21T06:08:58.108Z,2.60
2019-02-21T06:11:55.516Z,2.58
2019-02-21T06:14:44.054Z,2.54
2019-02-21T06:17:50.723Z,2.55
2019-02-21T06:20:45.054Z,2.56
2019-02-21T06:23:39.540Z,2.57
2019-02-21T06:26:18.926Z,2.62
2019-02-21T06:29:13.482Z,2.77
2019-02-21T06:31:45.436Z,2.72
2019-02-21T06:34:17.396Z,2.70
2019-02-21T06:36:49.359Z,2.54
2019-02-21T06:39:21.365Z,2.57
2019-02-21T06:41:59.564Z,2.55
2019-02-21T06:44:27.221Z,2.55
2019-02-21T06:46:59.198Z,2.57
2019-02-21T06:49:32.788Z,2.57
2019-02-21T06:52:05.123Z,2.66
2019-02-21T06:54:37.117Z,2.68
2019-02-21T06:57:09.136Z,2.70
2019-02-21T06:59:44.509Z,2.79
2019-02-21T07:02:15.037Z,2.84
2019-02-21T07:04:47.019Z,2.97
2019-02-21T07:07:19.017Z,3.06
2019-02-21T07:09:51.021Z,3.00
2019-02-21T07:12:23.028Z,3.09
2019-02-21T07:14:55.068Z,3.09
2019-02-21T07:17:27.575Z,3.15
2019-02-21T07:20:01.510Z,3.23
2019-02-21T07:22:33.451Z,3.33
2019-02-21T07:25:25.064Z,3.44
2019-02-21T07:27:58.348Z,3.56
2019-02-21T07:30:30.543Z,3.51
2019-02-21T07:33:03.843Z,3.58
2019-02-21T07:35:35.869Z,3.68
2019-02-21T07:38:07.825Z,3.60
2019-02-21T07:40:39.857Z,3.52
2019-02-21T07:43:12.899Z,3.56
2019-02-21T07:45:45.066Z,3.72
2019-02-21T07:48:17.140Z,3.69
2019-02-21T07:50:49.128Z,3.87
2019-02-21T07:53:21.088Z,4.11
2019-02-21T07:55:55.690Z,4.36
2019-02-21T07:58:26.955Z,4.48
2019-02-21T08:00:58.975Z,4.64
2019-02-21T08:03:43.473Z,4.86
2019-02-21T08:06:04.878Z,5.08
2019-02-21T08:08:36.882Z,5.23
2019-02-21T08:11:08.890Z,5.42
2019-02-21T08:13:40.870Z,5.59
2019-02-21T08:16:12.925Z,5.86
2019-02-21T08:18:44.933Z,6.13
2019-02-21T08:21:16.971Z,6.46
2019-02-21T08:23:50.882Z,6.74
2019-02-21T08:26:22.832Z,6.86
2019-02-21T08:28:54.793Z,7.02
2019-02-21T08:31:26.785Z,7.29
2019-02-21T08:34:05.245Z,7.36
2019-02-21T08:36:37.235Z,7.42
2019-02-21T08:39:09.587Z,7.59
2019-02-21T08:41:41.587Z,7.67
2019-02-21T08:44:13.548Z,7.91
2019-02-21T08:46:45.551Z,8.09
2019-02-21T08:49:17.541Z,8.19
2019-02-21T08:51:49.534Z,8.27
2019-02-21T08:54:21.528Z,8.37
2019-02-21T08:56:54.028Z,8.60
2019-02-21T08:59:26.029Z,8.82
2019-02-21T09:01:58.066Z,9.07
2019-02-21T09:04:30.079Z,9.19
2019-02-21T09:07:02.113Z,9.29
2019-02-21T09:09:34.148Z,9.32
2019-02-21T09:12:06.134Z,9.46
2019-02-21T09:14:38.122Z,9.58
2019-02-21T09:17:10.121Z,9.85
2019-02-21T09:19:42.099Z,10.01
2019-02-21T09:22:14.094Z,10.06
2019-02-21T09:24:46.083Z,10.24
2019-02-21T09:27:18.073Z,10.37
2019-02-21T09:29:50.087Z,10.46
2019-02-21T09:32:22.081Z,10.39
2019-02-21T09:34:54.067Z,10.49
2019-02-21T09:37:26.028Z,10.55
2019-02-21T09:39:58.019Z,10.58
2019-02-21T09:42:29.999Z,10.76
2019-02-21T09:45:01.995Z,11.13
2019-02-21T09:47:33.949Z,11.36
2019-02-21T09:50:06.528Z,11.75
2019-02-21T09:52:38.513Z,11.75
2019-02-21T09:55:11.391Z,12.00
2019-02-21T09:57:43.366Z,12.23
2019-02-21T10:00:17.139Z,12.13
2019-02-21T10:02:49.116Z,12.18
2019-02-21T10:05:21.109Z,12.06
2019-02-21T10:07:53.050Z,12.06
2019-02-21T10:10:25.084Z,12.07
2019-02-21T10:12:57.078Z,12.08
2019-02-21T10:15:31.423Z,12.22
2019-02-21T10:18:02.971Z,12.44
2019-02-21T10:20:35.018Z,12.62
2019-02-21T10:23:06.999Z,12.77
2019-02-21T10:25:39.021Z,12.89
2019-02-21T10:28:10.972Z,12.95
2019-02-21T10:30:43.003Z,13.15
2019-02-21T10:33:14.959Z,13.44
2019-02-21T10:35:46.952Z,13.60
2019-02-21T10:38:18.969Z,13.73
2019-02-21T10:40:50.972Z,13.83
2019-02-21T10:43:22.985Z,13.93
2019-02-21T10:45:54.997Z,13.92
2019-02-21T10:48:26.981Z,13.96
2019-02-21T10:50:58.980Z,14.02
2019-02-21T10:53:30.964Z,14.01
2019-02-21T10:56:02.962Z,13.95
2019-02-21T10:58:34.968Z,14.08
2019-02-21T11:01:06.981Z,14.12
2019-02-21T11:03:38.965Z,14.29
2019-02-21T11:06:10.957Z,14.32
2019-02-21T11:08:42.984Z,14.32
2019-02-21T11:11:17.098Z,14.35
2019-02-21T11:13:48.927Z,14.29
2019-02-21T11:16:20.951Z,14.34
2019-02-21T11:18:52.940Z,14.38
2019-02-21T11:21:24.991Z,14.46
2019-02-21T11:23:56.960Z,14.53
2019-02-21T11:26:28.975Z,14.58
2019-02-21T11:29:02.078Z,14.58
2019-02-21T11:31:34.073Z,14.69
2019-02-21T11:34:06.111Z,14.71
2019-02-21T11:36:38.124Z,14.74
2019-02-21T11:39:10.246Z,14.83
2019-02-21T11:41:43.854Z,14.83
2019-02-21T11:44:16.022Z,14.96
2019-02-21T11:46:48.021Z,14.85
2019-02-21T11:49:20.006Z,14.95
2019-02-21T11:51:52.017Z,15.10
2019-02-21T11:54:26.716Z,15.35
2019-02-21T11:56:57.975Z,15.48
2019-02-21T11:59:30.048Z,15.52
2019-02-21T12:02:02.033Z,15.41
2019-02-21T12:04:35.939Z,15.42
2019-02-21T12:07:07.930Z,15.33
2019-02-21T12:09:39.974Z,15.45
2019-02-21T12:12:11.963Z,15.60
2019-02-21T12:14:44.006Z,15.57
2019-02-21T12:17:16.005Z,15.73
2019-02-21T12:19:47.977Z,15.68
2019-02-21T12:22:21.109Z,15.74
2019-02-21T12:24:53.210Z,15.87
2019-02-21T12:27:26.304Z,15.95
2019-02-21T12:29:58.314Z,15.82
2019-02-21T12:32:30.315Z,15.94
2019-02-21T12:35:02.356Z,16.04
2019-02-21T12:37:34.466Z,15.95
2019-02-21T12:40:08.368Z,16.05
2019-02-21T12:42:40.444Z,15.93
2019-02-21T12:45:14.367Z,16.03
2019-02-21T12:47:50.845Z,16.16
2019-02-21T12:50:20.279Z,16.21
2019-02-21T12:52:52.272Z,16.07
2019-02-21T12:55:29.486Z,15.93
2019-02-21T12:57:58.238Z,15.82
2019-02-21T13:00:30.259Z,15.68
2019-02-21T13:03:02.376Z,15.59
2019-02-21T13:05:40.955Z,15.61
2019-02-21T13:08:08.654Z,15.58
2019-02-21T13:10:40.688Z,15.53
2019-02-21T13:13:12.665Z,15.51
2019-02-21T13:15:44.683Z,15.57
2019-02-21T13:18:16.674Z,15.53
2019-02-21T13:20:48.690Z,15.57
2019-02-21T13:23:22.494Z,15.57
2019-02-21T13:25:54.534Z,15.49
2019-02-21T13:28:26.516Z,15.49
2019-02-21T13:30:58.512Z,15.38
2019-02-21T13:33:30.497Z,15.32
2019-02-21T13:36:02.648Z,15.41
2019-02-21T13:38:34.650Z,15.46
2019-02-21T13:41:06.688Z,15.49
2019-02-21T13:43:38.676Z,15.45
2019-02-21T13:46:10.679Z,15.45
2019-02-21T13:48:42.681Z,15.29
2019-02-21T13:51:14.653Z,15.44
2019-02-21T13:53:46.888Z,15.47
2019-02-21T13:56:18.902Z,15.48
2019-02-21T13:58:50.942Z,15.67
2019-02-21T14:01:22.903Z,15.70
2019-02-21T14:03:56.718Z,15.58
2019-02-21T14:06:28.862Z,15.56
2019-02-21T14:09:00.865Z,15.55
2019-02-21T14:11:32.961Z,15.55
2019-02-21T14:14:05.052Z,15.51
2019-02-21T14:16:46.086Z,15.44
2019-02-21T14:19:11.133Z,15.40
2019-02-21T14:21:43.848Z,15.42
2019-02-21T14:24:16.003Z,15.26
2019-02-21T14:26:48.300Z,15.24
2019-02-21T14:29:20.417Z,15.16
2019-02-21T14:31:52.447Z,15.08
2019-02-21T14:34:24.493Z,15.09
2019-02-21T14:36:56.470Z,14.97
2019-02-21T14:39:28.637Z,14.97
2019-02-21T14:42:00.666Z,14.88
2019-02-21T14:44:32.846Z,14.78
2019-02-21T14:47:08.062Z,14.85
2019-02-21T14:49:40.137Z,14.80
2019-02-21T14:52:12.150Z,14.74
2019-02-21T14:54:44.154Z,14.70
2019-02-21T14:57:16.421Z,14.73
2019-02-21T14:59:50.299Z,14.65
2019-02-21T15:02:22.409Z,14.57
2019-02-21T15:04:54.396Z,14.54
2019-02-21T15:07:26.539Z,14.54
2019-02-21T15:09:58.600Z,14.48
2019-02-21T15:12:30.622Z,14.51
2019-02-21T15:15:03.146Z,14.50
2019-02-21T15:17:37.177Z,14.55
2019-02-21T15:20:10.451Z,14.57
2019-02-21T15:22:42.586Z,14.60
2019-02-21T15:25:14.584Z,14.53
2019-02-21T15:27:46.804Z,14.53
2019-02-21T15:30:20.826Z,14.54
2019-02-21T15:32:52.919Z,14.46
2019-02-21T15:35:25.045Z,14.43
2019-02-21T15:37:57.182Z,14.42
2019-02-21T15:40:29.241Z,14.35
2019-02-21T15:43:01.521Z,14.30
2019-02-21T15:45:33.532Z,14.13
2019-02-21T15:48:07.390Z,14.14
2019-02-21T15:50:39.987Z,14.09
2019-02-21T15:53:12.062Z,14.00
2019-02-21T15:55:44.085Z,13.98
2019-02-21T15:58:16.099Z,13.92
2019-02-21T16:00:48.123Z,13.86
2019-02-21T16:03:20.174Z,13.78
2019-02-21T16:05:52.355Z,13.72
2019-02-21T16:08:26.197Z,13.66
2019-02-21T16:10:58.227Z,13.62
2019-02-21T16:13:30.734Z,13.58
2019-02-21T16:16:02.915Z,13.56
2019-02-21T16:18:35.229Z,13.50
2019-02-21T16:21:07.296Z,13.46
2019-02-21T16:23:39.321Z,13.39
2019-02-21T16:26:11.354Z,13.32
2019-02-21T16:28:43.395Z,13.26
2019-02-21T16:31:16.520Z,13.19
2019-02-21T16:33:48.547Z,13.14
2019-02-21T16:36:22.358Z,13.09
2019-02-21T16:38:54.481Z,13.00
2019-02-21T16:41:36.068Z,12.91
2019-02-21T16:44:00.662Z,12.83
2019-02-21T16:46:32.819Z,12.74
2019-02-21T16:49:04.955Z,12.62
2019-02-21T16:51:37.129Z,12.51
2019-02-21T16:54:10.368Z,12.36
2019-02-21T16:56:42.379Z,12.27
2019-02-21T16:59:14.569Z,12.14
2019-02-21T17:01:46.646Z,12.04
2019-02-21T17:04:20.547Z,11.89
2019-02-21T17:06:52.625Z,11.78
2019-02-21T17:09:24.652Z,11.62
2019-02-21T17:11:56.802Z,11.46
2019-02-21T17:14:28.860Z,11.31
2019-02-21T17:17:00.893Z,11.22
2019-02-21T17:19:32.992Z,11.11
2019-02-21T17:22:05.021Z,11.03
2019-02-21T17:24:37.032Z,10.97
2019-02-21T17:27:09.163Z,10.87
2019-02-21T17:29:41.163Z,10.77
2019-02-21T17:32:13.194Z,10.73
2019-02-21T17:37:58.442Z,10.59
2019-02-21T17:40:30.516Z,10.51
2019-02-21T17:43:02.554Z,10.38
2019-02-21T17:45:34.566Z,10.37
2019-02-21T17:48:06.691Z,10.32
2019-02-21T17:50:38.783Z,10.23
2019-02-21T17:53:10.854Z,10.14
2019-02-21T17:55:42.926Z,10.03
2019-02-21T17:58:17.168Z,9.99
2019-02-21T18:00:48.939Z,9.92
2019-02-21T18:03:21.028Z,9.86
2019-02-21T18:05:55.902Z,9.79
2019-02-21T18:08:27.064Z,9.73
2019-02-21T18:10:59.141Z,9.67
2019-02-21T18:13:31.249Z,9.60
2019-02-21T18:16:03.322Z,9.57
2019-02-21T18:18:35.398Z,9.56
2019-02-21T18:21:08.337Z,9.52
2019-02-21T18:23:41.523Z,9.50
2019-02-21T18:26:16.492Z,9.53
2019-02-21T18:28:48.611Z,9.51
2019-02-21T18:31:20.687Z,9.53
2019-02-21T18:33:52.787Z,9.45
2019-02-21T18:36:24.853Z,9.42
2019-02-21T18:38:56.997Z,9.42
2019-02-21T18:41:29.164Z,9.44
2019-02-21T18:44:01.292Z,9.42
2019-02-21T18:46:33.425Z,9.43
2019-02-21T18:49:05.580Z,9.47
2019-02-21T18:51:37.675Z,9.46
2019-02-21T18:54:09.769Z,9.54
2019-02-21T18:56:41.937Z,9.50
2019-02-21T18:59:14.177Z,9.53
2019-02-21T19:01:46.300Z,9.46
2019-02-21T19:04:18.428Z,9.43
2019-02-21T19:06:50.581Z,9.44
2019-02-21T19:09:22.721Z,9.42
2019-02-21T19:11:54.861Z,9.39
2019-02-21T19:14:27.107Z,9.36
2019-02-21T19:16:59.211Z,9.34
2019-02-21T19:19:31.343Z,9.33
2019-02-21T19:22:03.444Z,9.33
2019-02-21T19:24:37.055Z,9.35
2019-02-21T19:27:09.472Z,9.33
2019-02-21T19:29:41.688Z,9.26
2019-02-21T19:32:13.819Z,9.25
2019-02-21T19:34:45.883Z,9.25
2019-02-21T19:37:17.974Z,9.23
2019-02-21T19:39:51.223Z,9.24
2019-02-21T19:42:23.391Z,9.21
2019-02-21T19:44:55.415Z,9.25
2019-02-21T19:47:27.561Z,9.23
2019-02-21T19:49:59.766Z,9.27
2019-02-21T19:52:31.772Z,9.27
2019-02-21T19:55:05.171Z,9.28
2019-02-21T19:57:37.439Z,9.27
2019-02-21T20:00:13.710Z,9.23
2019-02-21T20:02:45.850Z,9.20
2019-02-21T20:05:17.888Z,9.17
2019-02-21T20:07:50.168Z,9.13
2019-02-21T20:10:22.508Z,9.09
2019-02-21T20:12:56.620Z,9.05
2019-02-21T20:15:28.706Z,9.00
2019-02-21T20:18:01.906Z,8.93
2019-02-21T20:20:33.931Z,8.91
2019-02-21T20:23:06.124Z,8.89
2019-02-21T20:25:39.426Z,8.84
2019-02-21T20:28:11.629Z,8.82
2019-02-21T20:30:43.746Z,8.75
2019-02-21T20:33:15.979Z,8.76
2019-02-21T20:35:49.269Z,8.74
2019-02-21T20:38:31.548Z,8.76
2019-02-21T20:40:56.942Z,8.77
2019-02-21T20:43:29.290Z,8.72
2019-02-21T20:46:01.656Z,8.74
2019-02-21T20:48:33.754Z,8.75
2019-02-21T20:51:05.834Z,8.76
2019-02-21T20:53:38.035Z,8.78
2019-02-21T20:56:10.151Z,8.80
2019-02-21T20:58:42.274Z,8.77
2019-02-21T21:01:15.099Z,8.75
2019-02-21T21:03:47.186Z,8.71
2019-02-21T21:06:19.383Z,8.71
2019-02-21T21:08:51.661Z,8.73
2019-02-21T21:11:23.709Z,8.73
2019-02-21T21:13:55.774Z,8.76
2019-02-21T21:16:27.812Z,8.79
2019-02-21T21:18:59.911Z,8.80
2019-02-21T21:21:32.053Z,8.76
2019-02-21T21:24:04.218Z,8.75
2019-02-21T21:26:36.371Z,8.75
2019-02-21T21:29:08.380Z,8.70
2019-02-21T21:31:40.440Z,8.71
2019-02-21T21:34:12.477Z,8.72
2019-02-21T21:36:44.643Z,8.70
2019-02-21T21:39:16.909Z,8.70
2019-02-21T21:41:49.109Z,8.69
2019-02-21T21:44:21.267Z,8.68
2019-02-21T21:46:53.354Z,8.67
2019-02-21T21:49:25.426Z,8.69
2019-02-21T21:51:57.510Z,8.67
2019-02-21T21:54:29.618Z,8.69
2019-02-21T21:57:01.884Z,8.73
2019-02-21T21:59:33.904Z,8.77
2019-02-21T22:02:05.951Z,8.80
2019-02-21T22:04:37.962Z,8.75
2019-02-21T22:07:11.083Z,8.70
2019-02-21T22:09:43.159Z,8.65
2019-02-21T22:12:15.216Z,8.67
2019-02-21T22:14:47.238Z,8.67
2019-02-21T22:17:21.134Z,8.66
2019-02-21T22:19:53.190Z,8.70
2019-02-21T22:22:25.237Z,8.71
2019-02-21T22:24:58.412Z,8.74
2019-02-21T22:27:30.508Z,8.74
2019-02-21T22:30:23.961Z,8.75
2019-02-21T22:32:56.391Z,8.75
2019-02-21T22:35:28.509Z,8.74
2019-02-21T22:38:00.672Z,8.73
2019-02-21T22:40:32.635Z,8.74
2019-02-21T22:43:04.654Z,8.75
2019-02-21T22:45:36.742Z,8.72
2019-02-21T22:48:08.744Z,8.72
2019-02-21T22:50:40.744Z,8.75
2019-02-21T22:53:12.750Z,8.66
2019-02-21T22:55:44.745Z,8.64
2019-02-21T22:58:16.755Z,8.61
2019-02-21T23:00:58.769Z,8.59
2019-02-21T23:03:42.623Z,8.61
2019-02-21T23:06:39.274Z,8.63
2019-02-21T23:09:27.466Z,8.64
2019-02-21T23:11:55.823Z,8.67
2019-02-21T23:14:28.137Z,8.62
2019-02-21T23:17:00.102Z,8.63
2019-02-21T23:19:32.105Z,8.62
2019-02-21T23:22:04.084Z,8.64
2019-02-21T23:24:36.083Z,8.64
2019-02-21T23:27:08.037Z,8.65
2019-02-21T23:29:40.044Z,8.65
2019-02-21T23:32:12.013Z,8.64
2019-02-21T23:34:44.630Z,8.64
2019-02-21T23:37:16.597Z,8.64
2019-02-21T23:39:48.570Z,8.62
2019-02-21T23:42:22.671Z,8.62
2019-02-21T23:44:54.617Z,8.64
2019-02-21T23:47:26.617Z,8.62
2019-02-21T23:49:58.614Z,8.61
2019-02-21T23:52:30.596Z,8.62
2019-02-21T23:55:02.733Z,8.60
2019-02-21T23:57:34.691Z,8.60
